Clova, Canada
Current Conditions -  °F | °C
As of 1:00 PM on Thursday 30 Oct 2014 (Local Time) from CYVO Reporting Station
Overcast Overcast  
Wind Chill: 29°   Ceiling: 3700
Heat Index: 34°   Visibility: 15mi
Dew Point: 23°   Wind: 6mph
Humidity: 65%   Direction: 320°NW
Pressure: 29.98"   Gusts: NA
Location:  48.12°N, 75.37°W
Report Text: CYVO 301700Z 32005KT 250V340 15SM OVC037 01/M05 A2998 RMK SC8 SLP171
Loading
Personal Weather Stations






























Interactive Weather Map
Tropical Storm Tracking
New forecast layout! Learn more

10-Day Weather Forecast

Advertisements
Track Severe Weather on mobile